Hamilton, Michigan
Current Conditions -  °F | °C
As of 1:53 PM on Tuesday 27 Jan 2015 (Local Time) from KBIV Reporting Station
Clear Clear  
Wind Chill: 19°   Ceiling: Unl
Heat Index: 27°   Visibility: 10mi
Dew Point: 11°   Wind: 7mph
Humidity: 51%   Direction: NA
Pressure: 30.18"   Gusts: NA
Location:  42.68°N, 86.01°W
Report Text: KBIV 271853Z AUTO VRB06KT 10SM CLR M03/M12 A3018 RMK AO2 SLP230 T10281117
Loading
Personal Weather Stations






























Interactive Weather Map New forecast layout! Learn more

10-Day Weather Forecast

Advertisements
Track Severe Weather on mobile